Time;durP1;ratioP1;P1;durP2;ratioP2;P2;SDS_P1;SDS_P2;PMS_P1;PMS_P2;Temp;Humidity;BMP_temperature;BMP_pressure;BME280_temperature;BME280_humidity;BME280_pressure;Samples;Min_cycle;Max_cycle;Signal;HPM_P1;HPM_P2
2022/03/01 00:04:37;;;;;;;30.10;15.70;;;;;;;-4.37;60.48;101575.75;447268;1271;142451;-65
2022/03/01 00:14:43;;;;;;;28.40;16.50;;;;;;;-4.50;60.64;101567.71;447257;1271;142223;-64
2022/03/01 00:24:48;;;;;;;27.70;16.70;;;;;;;-4.59;61.22;101570.68;444394;1271;142391;-64
2022/03/01 00:34:54;;;;;;;28.90;18.40;;;;;;;-4.60;61.57;101571.68;445888;1271;142499;-65
2022/03/01 00:45:00;;;;;;;24.80;16.00;;;;;;;-4.51;61.80;101559.62;440586;1270;142188;-66
2022/03/01 00:55:07;;;;;;;32.80;16.60;;;;;;;-4.50;61.90;101550.44;447386;1271;141805;-64
2022/03/01 01:05:13;;;;;;;32.60;18.30;;;;;;;-4.64;62.38;101550.54;447255;1271;142822;-64
2022/03/01 01:15:20;;;;;;;32.30;18.00;;;;;;;-4.70;62.39;101546.42;446182;1272;142008;-64
2022/03/01 01:25:26;;;;;;;30.40;19.00;;;;;;;-4.88;62.80;101548.95;446927;1272;141404;-65
2022/03/01 01:35:35;;;;;;;31.20;16.50;;;;;;;-4.98;63.16;101546.41;447124;1271;141612;-64
2022/03/01 01:45:41;;;;;;;31.20;17.40;;;;;;;-5.18;63.25;101539.98;446423;1271;142406;-64
2022/03/01 01:55:45;;;;;;;;;;;;;;;-5.34;63.78;101534.70;444866;1271;143851;-60
2022/03/01 02:05:51;;;;;;;33.40;19.40;;;;;;;-5.41;64.09;101540.28;430006;1273;128516;-61
2022/03/01 02:15:58;;;;;;;32.90;17.00;;;;;;;-5.54;64.49;101541.02;428850;1271;142867;-64
2022/03/01 02:26:06;;;;;;;34.40;20.70;;;;;;;-5.77;64.99;101532.59;447093;1271;143732;-64
2022/03/01 02:36:12;;;;;;;37.20;21.40;;;;;;;-6.04;65.40;101528.09;446223;1270;145043;-64
2022/03/01 02:46:18;;;;;;;41.30;21.20;;;;;;;-6.15;65.95;101526.70;447074;1271;142926;-65
2022/03/01 02:56:24;;;;;;;48.30;22.80;;;;;;;-6.09;66.10;101527.07;447116;1271;143172;-63
2022/03/01 03:06:30;;;;;;;59.10;23.60;;;;;;;-5.99;66.10;101523.30;446373;1271;145160;-63
2022/03/01 03:16:36;;;;;;;47.50;21.20;;;;;;;-6.01;66.07;101509.77;446976;1272;143490;-64
2022/03/01 03:26:42;;;;;;;44.50;22.50;;;;;;;-6.16;66.11;101510.65;447223;1270;141906;-63
2022/03/01 03:36:47;;;;;;;47.60;25.60;;;;;;;-6.40;66.22;101499.73;446614;1271;144960;-64
2022/03/01 03:46:51;;;;;;;;;;;;;;;-6.66;66.42;101494.36;447418;1270;183068;-64
2022/03/01 03:56:57;;;;;;;46.40;21.60;;;;;;;-6.96;67.14;101486.61;447582;1270;128728;-65
2022/03/01 04:07:04;;;;;;;55.80;27.10;;;;;;;-7.21;67.64;101479.16;447166;1271;142589;-64
2022/03/01 04:17:10;;;;;;;58.00;27.80;;;;;;;-7.34;67.91;101471.20;447320;1270;143400;-63
2022/03/01 04:27:17;;;;;;;57.70;28.10;;;;;;;-7.27;68.25;101466.35;446533;1270;143392;-63
2022/03/01 04:37:23;;;;;;;55.30;27.50;;;;;;;-7.15;68.15;101464.44;437399;1271;142578;-63
2022/03/01 04:47:29;;;;;;;52.10;26.50;;;;;;;-7.13;68.15;101455.64;444745;1270;142672;-63
2022/03/01 04:57:35;;;;;;;56.20;27.00;;;;;;;-7.07;68.24;101452.65;446610;1270;142987;-63
2022/03/01 05:07:43;;;;;;;52.70;27.20;;;;;;;-7.17;68.13;101449.02;447317;1270;142690;-63
2022/03/01 05:17:49;;;;;;;59.60;27.10;;;;;;;-7.18;67.97;101451.02;447254;1270;144197;-64
2022/03/01 05:27:55;;;;;;;54.10;25.80;;;;;;;-7.15;68.06;101454.36;446521;1271;143069;-63
2022/03/01 05:38:02;;;;;;;61.90;29.70;;;;;;;-7.04;68.17;101451.55;446631;1272;142722;-64
2022/03/01 05:48:08;;;;;;;62.20;26.80;;;;;;;-6.83;68.10;101445.53;445905;1272;143345;-64
2022/03/01 05:58:14;;;;;;;69.50;28.70;;;;;;;-6.67;67.95;101445.95;444514;1273;142462;-65
2022/03/01 06:08:19;;;;;;;57.30;28.70;;;;;;;-6.32;67.81;101445.30;446968;1271;142098;-65
2022/03/01 06:18:24;;;;;;;;;;;;;;;-5.65;67.89;101452.95;446558;1270;142294;-65
2022/03/01 06:28:30;;;;;;;67.90;34.00;;;;;;;-2.88;67.45;101453.77;447575;1270;131940;-64
2022/03/01 06:38:36;;;;;;;67.80;37.70;;;;;;;3.48;62.74;101440.88;447352;1270;141351;-64
2022/03/01 06:48:42;;;;;;;78.00;45.10;;;;;;;7.94;56.72;101433.36;446515;1270;145113;-64
2022/03/01 06:58:48;;;;;;;95.50;64.60;;;;;;;11.69;52.02;101420.44;447342;1271;142416;-65
2022/03/01 07:08:54;;;;;;;91.60;67.60;;;;;;;14.75;47.69;101412.66;446844;1272;141819;-65
2022/03/01 07:19:01;;;;;;;81.50;61.80;;;;;;;17.56;43.99;101405.98;446399;1271;142214;-65
2022/03/01 07:29:07;;;;;;;96.30;74.70;;;;;;;20.42;40.90;101400.21;447139;1271;142057;-64
2022/03/01 07:39:13;;;;;;;85.20;57.30;;;;;;;22.75;37.77;101397.00;445984;1272;143111;-64
2022/03/01 07:49:19;;;;;;;45.20;31.40;;;;;;;24.47;35.14;101396.50;446394;1271;144208;-64
2022/03/01 07:59:24;;;;;;;16.10;10.70;;;;;;;25.87;32.38;101395.61;446930;1273;142941;-64
2022/03/01 08:09:32;;;;;;;5.10;4.80;;;;;;;26.63;29.45;101388.52;446438;1271;143930;-64
2022/03/01 08:19:36;;;;;;;;;;;;;;;26.65;27.69;101381.01;446945;1272;143004;-64
2022/03/01 08:29:42;;;;;;;5.00;4.50;;;;;;;27.01;26.88;101371.44;447351;1271;129126;-69
2022/03/01 08:39:48;;;;;;;6.60;4.10;;;;;;;27.55;25.42;101373.09;446428;1271;143183;-72
2022/03/01 08:49:54;;;;;;;6.70;4.70;;;;;;;27.64;24.53;101375.91;447138;1271;142572;-70
2022/03/01 09:00:00;;;;;;;6.10;4.80;;;;;;;28.33;23.48;101370.52;447195;1271;142321;-68
2022/03/01 09:10:07;;;;;;;3.50;3.20;;;;;;;28.78;22.71;101365.05;447367;1270;141145;-72
2022/03/01 09:20:14;;;;;;;5.20;4.40;;;;;;;27.45;21.72;101359.48;446895;1270;142017;-68
2022/03/01 09:30:21;;;;;;;4.20;3.80;;;;;;;24.96;21.23;101347.48;446507;1271;141620;-68
2022/03/01 09:40:26;;;;;;;6.60;4.50;;;;;;;16.68;22.82;101349.69;436543;1273;142720;-68
2022/03/01 09:50:32;;;;;;;4.70;3.40;;;;;;;12.12;25.07;101348.96;430492;1271;141731;-66
2022/03/01 10:00:39;;;;;;;5.40;3.50;;;;;;;9.41;26.70;101350.53;429044;1272;142625;-66
2022/03/01 10:10:47;;;;;;;4.10;3.60;;;;;;;7.66;27.57;101346.33;432611;1271;141771;-69
2022/03/01 10:21:02;;;;;;;;;;;;;;;6.10;28.55;101338.35;447111;1271;142636;-67
2022/03/01 10:31:16;;;;;;;4.60;3.00;;;;;;;5.09;29.55;101330.84;447516;1270;128412;-72
2022/03/01 10:41:27;;;;;;;7.00;3.40;;;;;;;4.28;30.03;101319.29;439205;1271;141225;-64
2022/03/01 10:51:33;;;;;;;3.70;3.10;;;;;;;3.90;30.79;101313.58;446126;1272;144810;-66
2022/03/01 11:01:39;;;;;;;2.90;2.20;;;;;;;3.52;31.22;101298.29;442670;1271;141315;-67
2022/03/01 11:11:47;;;;;;;5.70;3.70;;;;;;;3.36;30.76;101284.02;438889;1271;140854;-69
2022/03/01 11:21:54;;;;;;;7.40;4.60;;;;;;;3.29;30.98;101261.92;442324;1271;141030;-67
2022/03/01 11:32:01;;;;;;;8.60;5.80;;;;;;;3.21;31.44;101241.39;444360;1272;142027;-73
2022/03/01 11:42:09;;;;;;;5.40;3.80;;;;;;;3.13;33.22;101231.56;437089;1273;141036;-64
2022/03/01 11:52:23;;;;;;;9.10;5.20;;;;;;;3.11;31.86;101220.15;446910;1272;141775;-70
2022/03/01 12:02:29;;;;;;;9.10;5.70;;;;;;;3.06;32.41;101203.92;446700;1273;141291;-69
2022/03/01 12:12:38;;;;;;;8.60;4.80;;;;;;;3.12;33.03;101188.99;446408;1271;141603;-65
2022/03/01 12:22:59;;;;;;;8.90;5.40;;;;;;;3.10;32.43;101181.58;446285;1271;141226;-68
2022/03/01 12:33:11;;;;;;;7.60;4.00;;;;;;;3.09;33.01;101170.69;446630;1270;164208;-72
2022/03/01 12:43:20;;;;;;;7.50;3.90;;;;;;;3.05;31.88;101161.02;443812;1270;140782;-67
2022/03/01 12:53:27;;;;;;;6.00;4.00;;;;;;;2.99;31.60;101139.43;442348;1269;140330;-65
2022/03/01 13:03:34;;;;;;;6.60;3.60;;;;;;;2.95;31.35;101129.44;443902;1270;141796;-63
2022/03/01 13:13:44;;;;;;;5.70;4.10;;;;;;;2.94;32.02;101108.52;447418;1270;141013;-64
2022/03/01 13:23:53;;;;;;;9.30;5.30;;;;;;;2.97;32.18;101089.11;439592;1270;141308;-64
2022/03/01 13:34:00;;;;;;;5.50;4.70;;;;;;;3.02;32.46;101079.20;437812;1271;141497;-77
2022/03/01 13:44:18;;;;;;;6.60;4.70;;;;;;;2.92;32.40;101072.04;441295;1272;141408;-62
2022/03/01 13:54:26;;;;;;;7.30;4.00;;;;;;;2.84;33.32;101048.92;445281;1271;142024;-61
2022/03/01 14:04:33;;;;;;;9.90;5.00;;;;;;;2.83;33.86;101035.09;447235;1271;141754;-64
2022/03/01 14:14:46;;;;;;;8.60;5.90;;;;;;;2.86;35.03;101022.95;439574;1271;140557;-63
2022/03/01 14:24:52;;;;;;;7.50;4.80;;;;;;;2.83;34.96;101022.46;437057;1271;142169;-67
2022/03/01 14:34:58;;;;;;;7.00;4.40;;;;;;;2.68;35.85;101012.73;443834;1271;212989;-62
2022/03/01 14:45:04;;;;;;;8.00;5.10;;;;;;;2.63;36.81;101005.67;446738;1271;141544;-62
2022/03/01 14:55:10;;;;;;;9.60;5.80;;;;;;;2.56;37.08;100997.27;447390;1270;141597;-64
2022/03/01 15:05:16;;;;;;;8.00;5.40;;;;;;;2.46;37.68;100982.14;447449;1270;141367;-70
2022/03/01 15:15:22;;;;;;;11.30;5.80;;;;;;;2.31;38.06;100983.46;446565;1270;141065;-65
2022/03/01 15:25:28;;;;;;;13.00;5.90;;;;;;;2.09;38.74;100978.95;447432;1270;141165;-63
2022/03/01 15:35:35;;;;;;;10.60;6.30;;;;;;;1.88;38.89;100981.14;440771;1270;141371;-65
2022/03/01 15:45:41;;;;;;;11.90;7.60;;;;;;;1.64;39.58;100981.10;444165;1270;142624;-64
2022/03/01 15:55:48;;;;;;;14.50;10.00;;;;;;;1.35;40.10;100971.90;447265;1271;141719;-64
2022/03/01 16:05:54;;;;;;;18.90;11.10;;;;;;;1.09;40.87;100973.19;446466;1270;142226;-64
2022/03/01 16:16:01;;;;;;;12.70;9.30;;;;;;;0.80;41.51;100972.55;436821;1270;143432;-64
2022/03/01 16:26:08;;;;;;;18.30;11.10;;;;;;;0.49;42.16;100968.10;433895;1270;140693;-63
2022/03/01 16:36:14;;;;;;;12.30;7.10;;;;;;;0.11;42.66;100969.97;437768;1270;141630;-64
2022/03/01 16:46:22;;;;;;;15.20;7.60;;;;;;;-0.22;43.14;100968.88;438977;1270;146539;-64
2022/03/01 16:56:28;;;;;;;16.10;8.60;;;;;;;-0.48;43.58;100973.77;439972;1272;141901;-64
2022/03/01 17:06:34;;;;;;;17.20;9.70;;;;;;;-0.71;43.87;100977.63;436515;1271;141030;-64
2022/03/01 17:16:40;;;;;;;11.40;6.70;;;;;;;-0.93;44.41;100979.58;443566;1270;141687;-64
2022/03/01 17:26:46;;;;;;;12.50;8.30;;;;;;;-1.11;44.69;100982.41;447354;1270;141459;-64
2022/03/01 17:36:52;;;;;;;14.90;9.60;;;;;;;-1.17;44.63;100980.13;446635;1271;142316;-63
2022/03/01 17:46:58;;;;;;;17.80;10.70;;;;;;;-1.20;44.52;100979.07;447511;1270;141857;-64
2022/03/01 17:57:04;;;;;;;16.10;11.40;;;;;;;-1.33;44.53;100978.80;446551;1271;141555;-62
2022/03/01 18:07:10;;;;;;;21.60;10.70;;;;;;;-1.42;44.45;100976.17;447436;1270;141943;-64
2022/03/01 18:17:16;;;;;;;19.50;11.50;;;;;;;-1.50;44.76;100962.02;447440;1271;141846;-64
2022/03/01 18:27:22;;;;;;;27.20;17.90;;;;;;;-1.60;44.99;100955.40;446327;1271;141446;-70
2022/03/01 18:37:29;;;;;;;20.30;13.80;;;;;;;-1.71;45.31;100952.74;436651;1271;140987;-68
2022/03/01 18:47:35;;;;;;;24.00;13.90;;;;;;;-1.90;45.53;100952.92;447441;1270;145772;-67
2022/03/01 18:57:41;;;;;;;22.90;11.60;;;;;;;-2.10;46.27;100956.50;446399;1271;142502;-68
2022/03/01 19:07:48;;;;;;;31.50;16.20;;;;;;;-2.30;46.88;100956.31;437119;1271;141538;-66
2022/03/01 19:17:54;;;;;;;45.50;19.10;;;;;;;-2.61;48.07;100950.12;446932;1269;144444;-64
2022/03/01 19:28:00;;;;;;;39.30;18.30;;;;;;;-2.93;49.39;100947.15;432529;1271;141460;-66
2022/03/01 19:38:07;;;;;;;41.50;18.30;;;;;;;-3.22;50.30;100944.19;438953;1271;142758;-76
2022/03/01 19:48:13;;;;;;;44.40;18.10;;;;;;;-3.47;51.36;100947.91;435410;1271;142383;-77
2022/03/01 19:58:19;;;;;;;39.20;19.30;;;;;;;-3.73;51.68;100951.78;433136;1271;141707;-75
2022/03/01 20:08:26;;;;;;;36.30;19.70;;;;;;;-3.99;52.32;100946.38;439436;1271;141330;-77
2022/03/01 20:18:30;;;;;;;;;;;;;;;-4.22;53.01;100935.36;446164;1271;142100;-75
2022/03/01 20:28:36;;;;;;;49.40;22.60;;;;;;;-4.41;53.77;100929.38;436402;1271;127539;-76
2022/03/01 20:38:43;;;;;;;45.40;20.80;;;;;;;-4.57;54.46;100912.14;437155;1271;141659;-75
2022/03/01 20:48:50;;;;;;;51.50;22.20;;;;;;;-4.71;54.66;100908.10;430281;1271;142030;-76
2022/03/01 20:58:55;;;;;;;;;;;;;;;-4.85;55.44;100899.65;434417;1273;141396;-77
2022/03/01 21:09:01;;;;;;;52.30;21.20;;;;;;;-5.02;56.47;100901.02;440471;1271;127922;-77
2022/03/01 21:19:06;;;;;;;;;;;;;;;-5.18;57.38;100895.72;435608;1271;141540;-74
2022/03/01 21:29:12;;;;;;;47.20;22.20;;;;;;;-5.32;57.82;100889.95;439303;1270;127609;-69
2022/03/01 21:39:16;;;;;;;;;;;;;;;-5.46;58.22;100886.05;446619;1270;142240;-69
2022/03/01 21:49:22;;;;;;;70.70;27.30;;;;;;;-5.57;58.51;100876.25;447628;1269;129288;-68
2022/03/01 21:59:27;;;;;;;;;;;;;;;-5.67;58.91;100866.30;436660;1270;141880;-68
2022/03/01 22:09:34;;;;;;;59.60;24.80;;;;;;;-5.78;59.46;100856.34;431044;1271;128088;-65
2022/03/01 22:19:40;;;;;;;57.90;23.40;;;;;;;-5.91;59.80;100852.60;443293;1271;141846;-67
2022/03/01 22:29:46;;;;;;;102.90;39.40;;;;;;;-6.03;60.30;100846.91;447424;1271;141995;-67
2022/03/01 22:39:51;;;;;;;81.70;34.10;;;;;;;-6.12;60.62;100836.30;446650;1270;142617;-67
2022/03/01 22:49:56;;;;;;;;;;;;;;;-6.20;61.18;100833.73;447478;1270;142002;-66
2022/03/01 23:00:03;;;;;;;73.40;34.20;;;;;;;-6.14;61.49;100826.52;441666;1270;128539;-67
2022/03/01 23:10:10;;;;;;;88.10;41.10;;;;;;;-6.00;61.63;100817.47;447384;1270;142307;-66
2022/03/01 23:20:17;;;;;;;86.60;41.60;;;;;;;-5.94;61.32;100806.83;447391;1270;143585;-65
2022/03/01 23:30:23;;;;;;;86.10;41.80;;;;;;;-5.96;61.35;100796.73;430586;1270;141890;-66
2022/03/01 23:40:29;;;;;;;92.30;40.90;;;;;;;-6.13;61.44;100793.83;433357;1271;143527;-63
2022/03/01 23:50:36;;;;;;;79.10;43.40;;;;;;;-6.38;61.62;100799.01;444502;1271;142275;-64
